CheckWX is a tool to help pilots better visualize weather data.  It is not intended as a substitute for an official pre-flight weather briefing.

10:54:33 UTC

FKYS METAR
Yaoundé Nsimalen International Airport
Yaoundé, Cameroon
Current

55 mins ago

FKYS 281000Z 25003KT 170V300 9999 BKN020 29/24 Q1018 NOSIG
Observed
May-28 @ 10:00 UTC
Wind
  • 250° at 3 KTS
Visibility
10,000+ meters
Flight Rules
MVFR
Cloud Levels
  • Broken at 2,000' AGL
Temperature
29°C / 84°F
Dewpoint
24°C / 75°F
Humidity
74%
Altimeter
30.06" Hg
Pressure
1017.92 hPa
Previous

2 hours ago

FKYS 280900Z 27003KT 200V360 9999 BKN016 28/24 Q1018 NOSIG
Observed
May-28 @ 09:00 UTC
Wind
  • 270° at 3 KTS
Visibility
10,000+ meters
Flight Rules
MVFR
Cloud Levels
  • Broken at 1,600' AGL
Temperature
28°C / 82°F
Dewpoint
24°C / 75°F
Humidity
79%
Altimeter
30.06" Hg
Pressure
1017.92 hPa
Previous

3 hours ago

FKYS 280800Z 31005KT 260V330 9999 BKN011 26/23 Q1018 BECMG BKN016
Observed
May-28 @ 08:00 UTC
Wind
  • 310° at 5 KTS
Visibility
10,000+ meters
Flight Rules
MVFR
Cloud Levels
  • Broken at 1,100' AGL
Temperature
26°C / 79°F
Dewpoint
23°C / 73°F
Humidity
84%
Altimeter
30.06" Hg
Pressure
1017.92 hPa